sensor_id;sensor_type;location;lat;lon;timestamp;temperature;humidity
21787;DHT22;11055;50.870;4.316;2023-08-01T00:00:33;17.20;99.90
21787;DHT22;11055;50.870;4.316;2023-08-01T00:02:59;17.30;99.90
21787;DHT22;11055;50.870;4.316;2023-08-01T00:05:25;17.20;99.90
21787;DHT22;11055;50.870;4.316;2023-08-01T00:07:52;17.30;99.90
21787;DHT22;11055;50.870;4.316;2023-08-01T00:10:17;17.20;99.90
21787;DHT22;11055;50.870;4.316;2023-08-01T00:12:43;17.10;99.90
21787;DHT22;11055;50.870;4.316;2023-08-01T00:15:09;17.10;99.90
21787;DHT22;11055;50.870;4.316;2023-08-01T00:17:35;17.10;99.90
21787;DHT22;11055;50.870;4.316;2023-08-01T00:20:02;17.00;99.90
21787;DHT22;11055;50.870;4.316;2023-08-01T00:22:28;17.00;99.90
21787;DHT22;11055;50.870;4.316;2023-08-01T00:24:53;17.00;99.90
21787;DHT22;11055;50.870;4.316;2023-08-01T00:27:19;17.00;99.90
21787;DHT22;11055;50.870;4.316;2023-08-01T00:29:45;17.00;99.90
21787;DHT22;11055;50.870;4.316;2023-08-01T00:32:11;17.00;99.90
21787;DHT22;11055;50.870;4.316;2023-08-01T00:34:36;16.90;99.90
21787;DHT22;11055;50.870;4.316;2023-08-01T00:37:02;16.90;99.90
21787;DHT22;11055;50.870;4.316;2023-08-01T00:39:28;16.90;99.90
21787;DHT22;11055;50.870;4.316;2023-08-01T00:41:54;16.90;99.90
21787;DHT22;11055;50.870;4.316;2023-08-01T00:44:19;16.90;99.90
21787;DHT22;11055;50.870;4.316;2023-08-01T00:46:45;16.90;99.90
21787;DHT22;11055;50.870;4.316;2023-08-01T00:49:12;16.90;99.90
21787;DHT22;11055;50.870;4.316;2023-08-01T00:51:37;16.90;99.90
21787;DHT22;11055;50.870;4.316;2023-08-01T00:54:03;16.90;99.90
21787;DHT22;11055;50.870;4.316;2023-08-01T00:56:29;16.90;99.90
21787;DHT22;11055;50.870;4.316;2023-08-01T00:58:54;16.80;99.90
21787;DHT22;11055;50.870;4.316;2023-08-01T01:01:20;16.80;99.90
21787;DHT22;11055;50.870;4.316;2023-08-01T01:03:46;16.80;99.90
21787;DHT22;11055;50.870;4.316;2023-08-01T01:06:14;16.90;99.90
21787;DHT22;11055;50.870;4.316;2023-08-01T01:08:43;16.90;99.90
21787;DHT22;11055;50.870;4.316;2023-08-01T01:11:08;16.80;99.90
21787;DHT22;11055;50.870;4.316;2023-08-01T01:13:34;16.80;99.90
21787;DHT22;11055;50.870;4.316;2023-08-01T01:16:00;16.80;99.90
21787;DHT22;11055;50.870;4.316;2023-08-01T01:18:25;16.80;99.90
21787;DHT22;11055;50.870;4.316;2023-08-01T01:20:51;16.80;99.90
21787;DHT22;11055;50.870;4.316;2023-08-01T01:23:17;16.80;99.90
21787;DHT22;11055;50.870;4.316;2023-08-01T01:25:45;16.80;99.90
21787;DHT22;11055;50.870;4.316;2023-08-01T01:28:12;16.80;99.90
21787;DHT22;11055;50.870;4.316;2023-08-01T01:30:38;16.80;99.90
21787;DHT22;11055;50.870;4.316;2023-08-01T01:33:04;16.80;99.90
21787;DHT22;11055;50.870;4.316;2023-08-01T01:35:33;16.90;99.90
21787;DHT22;11055;50.870;4.316;2023-08-01T01:38:00;16.90;99.90
21787;DHT22;11055;50.870;4.316;2023-08-01T01:40:29;16.90;99.90
21787;DHT22;11055;50.870;4.316;2023-08-01T01:42:55;16.80;99.90
21787;DHT22;11055;50.870;4.316;2023-08-01T01:45:21;16.80;99.90
21787;DHT22;11055;50.870;4.316;2023-08-01T01:47:46;16.70;99.90
21787;DHT22;11055;50.870;4.316;2023-08-01T01:50:12;16.70;99.90
21787;DHT22;11055;50.870;4.316;2023-08-01T01:52:38;16.70;99.90
21787;DHT22;11055;50.870;4.316;2023-08-01T01:55:03;16.70;99.90
21787;DHT22;11055;50.870;4.316;2023-08-01T01:57:29;16.60;99.90
21787;DHT22;11055;50.870;4.316;2023-08-01T01:59:55;16.60;99.90
21787;DHT22;11055;50.870;4.316;2023-08-01T02:02:20;16.60;99.90
21787;DHT22;11055;50.870;4.316;2023-08-01T02:04:47;16.60;99.90
21787;DHT22;11055;50.870;4.316;2023-08-01T02:07:13;16.60;99.90
21787;DHT22;11055;50.870;4.316;2023-08-01T02:09:40;16.60;99.90
21787;DHT22;11055;50.870;4.316;2023-08-01T02:12:05;16.50;99.90
21787;DHT22;11055;50.870;4.316;2023-08-01T02:14:33;16.50;99.90
21787;DHT22;11055;50.870;4.316;2023-08-01T02:16:59;16.50;99.90
21787;DHT22;11055;50.870;4.316;2023-08-01T02:19:25;16.50;99.90
21787;DHT22;11055;50.870;4.316;2023-08-01T02:21:50;16.50;99.90
21787;DHT22;11055;50.870;4.316;2023-08-01T02:24:16;16.50;99.90
21787;DHT22;11055;50.870;4.316;2023-08-01T02:26:41;16.40;99.90
21787;DHT22;11055;50.870;4.316;2023-08-01T02:29:07;16.40;99.90
21787;DHT22;11055;50.870;4.316;2023-08-01T02:31:33;16.50;99.90
21787;DHT22;11055;50.870;4.316;2023-08-01T02:33:58;16.50;99.90
21787;DHT22;11055;50.870;4.316;2023-08-01T02:36:24;16.50;99.90
21787;DHT22;11055;50.870;4.316;2023-08-01T02:38:49;16.50;99.90
21787;DHT22;11055;50.870;4.316;2023-08-01T02:41:15;16.50;99.90
21787;DHT22;11055;50.870;4.316;2023-08-01T02:43:41;16.50;99.90
21787;DHT22;11055;50.870;4.316;2023-08-01T02:46:06;16.50;99.90
21787;DHT22;11055;50.870;4.316;2023-08-01T02:48:32;16.50;99.90
21787;DHT22;11055;50.870;4.316;2023-08-01T02:50:58;16.50;99.90
21787;DHT22;11055;50.870;4.316;2023-08-01T02:53:24;16.50;99.90
21787;DHT22;11055;50.870;4.316;2023-08-01T02:55:49;16.50;99.90
21787;DHT22;11055;50.870;4.316;2023-08-01T02:58:15;16.50;99.90
21787;DHT22;11055;50.870;4.316;2023-08-01T03:00:41;16.50;99.90
21787;DHT22;11055;50.870;4.316;2023-08-01T03:03:07;16.50;99.90
21787;DHT22;11055;50.870;4.316;2023-08-01T03:05:35;16.50;99.90
21787;DHT22;11055;50.870;4.316;2023-08-01T03:08:01;16.50;99.90
21787;DHT22;11055;50.870;4.316;2023-08-01T03:10:28;16.60;99.90
21787;DHT22;11055;50.870;4.316;2023-08-01T03:12:53;16.60;99.90
21787;DHT22;11055;50.870;4.316;2023-08-01T03:15:19;16.60;99.90
21787;DHT22;11055;50.870;4.316;2023-08-01T03:17:45;16.60;99.90
21787;DHT22;11055;50.870;4.316;2023-08-01T03:20:11;16.60;99.90
21787;DHT22;11055;50.870;4.316;2023-08-01T03:22:38;16.60;99.90
21787;DHT22;11055;50.870;4.316;2023-08-01T03:25:05;16.60;99.90
21787;DHT22;11055;50.870;4.316;2023-08-01T03:27:35;16.70;99.90
21787;DHT22;11055;50.870;4.316;2023-08-01T03:30:02;16.70;99.90
21787;DHT22;11055;50.870;4.316;2023-08-01T03:32:28;16.70;99.90
21787;DHT22;11055;50.870;4.316;2023-08-01T03:34:53;16.70;99.90
21787;DHT22;11055;50.870;4.316;2023-08-01T03:37:19;16.70;99.90
21787;DHT22;11055;50.870;4.316;2023-08-01T03:39:45;16.80;99.90
21787;DHT22;11055;50.870;4.316;2023-08-01T03:42:10;16.80;99.90
21787;DHT22;11055;50.870;4.316;2023-08-01T03:44:36;16.80;99.90
21787;DHT22;11055;50.870;4.316;2023-08-01T03:47:02;16.70;99.90
21787;DHT22;11055;50.870;4.316;2023-08-01T03:49:28;16.60;99.90
21787;DHT22;11055;50.870;4.316;2023-08-01T03:51:53;16.60;99.90
21787;DHT22;11055;50.870;4.316;2023-08-01T03:54:19;16.60;99.90
21787;DHT22;11055;50.870;4.316;2023-08-01T03:56:44;16.60;99.90
21787;DHT22;11055;50.870;4.316;2023-08-01T03:59:15;16.60;99.90
21787;DHT22;11055;50.870;4.316;2023-08-01T04:01:41;16.70;99.90
21787;DHT22;11055;50.870;4.316;2023-08-01T04:04:08;16.60;99.90
21787;DHT22;11055;50.870;4.316;2023-08-01T04:06:34;16.60;99.90
21787;DHT22;11055;50.870;4.316;2023-08-01T04:08:59;16.50;99.90
21787;DHT22;11055;50.870;4.316;2023-08-01T04:11:26;16.50;99.90
21787;DHT22;11055;50.870;4.316;2023-08-01T04:13:52;16.50;99.90
21787;DHT22;11055;50.870;4.316;2023-08-01T04:16:18;16.40;99.90
21787;DHT22;11055;50.870;4.316;2023-08-01T04:18:43;16.40;99.90
21787;DHT22;11055;50.870;4.316;2023-08-01T04:21:11;16.40;99.90
21787;DHT22;11055;50.870;4.316;2023-08-01T04:23:37;16.40;99.90
21787;DHT22;11055;50.870;4.316;2023-08-01T04:26:03;16.40;99.90
21787;DHT22;11055;50.870;4.316;2023-08-01T04:28:31;16.40;99.90
21787;DHT22;11055;50.870;4.316;2023-08-01T04:30:57;16.40;99.90
21787;DHT22;11055;50.870;4.316;2023-08-01T04:33:23;16.40;99.90
21787;DHT22;11055;50.870;4.316;2023-08-01T04:35:48;16.40;99.90
21787;DHT22;11055;50.870;4.316;2023-08-01T04:38:15;16.40;99.90
21787;DHT22;11055;50.870;4.316;2023-08-01T04:40:40;16.40;99.90
21787;DHT22;11055;50.870;4.316;2023-08-01T04:43:06;16.50;99.90
21787;DHT22;11055;50.870;4.316;2023-08-01T04:45:31;16.50;99.90
21787;DHT22;11055;50.870;4.316;2023-08-01T04:47:57;16.40;99.90
21787;DHT22;11055;50.870;4.316;2023-08-01T04:50:23;16.40;99.90
21787;DHT22;11055;50.870;4.316;2023-08-01T04:52:49;16.30;99.90
21787;DHT22;11055;50.870;4.316;2023-08-01T04:55:14;16.30;99.90
21787;DHT22;11055;50.870;4.316;2023-08-01T04:57:40;16.30;99.90
21787;DHT22;11055;50.870;4.316;2023-08-01T05:00:06;16.30;99.90
21787;DHT22;11055;50.870;4.316;2023-08-01T05:02:32;16.30;99.90
21787;DHT22;11055;50.870;4.316;2023-08-01T05:04:58;16.40;99.90
21787;DHT22;11055;50.870;4.316;2023-08-01T05:07:23;16.40;99.90
21787;DHT22;11055;50.870;4.316;2023-08-01T05:09:49;16.40;99.90
21787;DHT22;11055;50.870;4.316;2023-08-01T05:12:15;16.40;99.90
21787;DHT22;11055;50.870;4.316;2023-08-01T05:14:40;16.30;99.90
21787;DHT22;11055;50.870;4.316;2023-08-01T05:17:06;16.40;99.90
21787;DHT22;11055;50.870;4.316;2023-08-01T05:19:32;16.40;99.90
21787;DHT22;11055;50.870;4.316;2023-08-01T05:21:57;16.40;99.90
21787;DHT22;11055;50.870;4.316;2023-08-01T05:24:23;16.30;99.90
21787;DHT22;11055;50.870;4.316;2023-08-01T05:26:48;16.40;99.90
21787;DHT22;11055;50.870;4.316;2023-08-01T05:29:14;16.40;99.90
21787;DHT22;11055;50.870;4.316;2023-08-01T05:31:40;16.40;99.90
21787;DHT22;11055;50.870;4.316;2023-08-01T05:34:05;16.40;99.90
21787;DHT22;11055;50.870;4.316;2023-08-01T05:36:31;16.50;99.90
21787;DHT22;11055;50.870;4.316;2023-08-01T05:38:57;16.50;99.90
21787;DHT22;11055;50.870;4.316;2023-08-01T05:41:23;16.50;99.90
21787;DHT22;11055;50.870;4.316;2023-08-01T05:43:49;16.50;99.90
21787;DHT22;11055;50.870;4.316;2023-08-01T05:46:15;16.60;99.90
21787;DHT22;11055;50.870;4.316;2023-08-01T05:48:41;16.60;99.90
21787;DHT22;11055;50.870;4.316;2023-08-01T05:51:06;16.60;99.90
21787;DHT22;11055;50.870;4.316;2023-08-01T05:53:32;16.60;99.90
21787;DHT22;11055;50.870;4.316;2023-08-01T05:55:58;16.60;99.90
21787;DHT22;11055;50.870;4.316;2023-08-01T05:58:23;16.50;99.90
21787;DHT22;11055;50.870;4.316;2023-08-01T06:00:49;16.50;99.90
21787;DHT22;11055;50.870;4.316;2023-08-01T06:03:15;16.60;99.90
21787;DHT22;11055;50.870;4.316;2023-08-01T06:05:41;16.60;99.90
21787;DHT22;11055;50.870;4.316;2023-08-01T06:08:07;16.60;99.90
21787;DHT22;11055;50.870;4.316;2023-08-01T06:10:34;16.60;99.90
21787;DHT22;11055;50.870;4.316;2023-08-01T06:12:59;16.60;99.90
21787;DHT22;11055;50.870;4.316;2023-08-01T06:15:25;16.50;99.90
21787;DHT22;11055;50.870;4.316;2023-08-01T06:17:51;16.60;99.90
21787;DHT22;11055;50.870;4.316;2023-08-01T06:20:16;16.60;99.90
21787;DHT22;11055;50.870;4.316;2023-08-01T06:22:42;16.60;99.90
21787;DHT22;11055;50.870;4.316;2023-08-01T06:25:08;16.60;99.90
21787;DHT22;11055;50.870;4.316;2023-08-01T06:27:34;16.70;99.90
21787;DHT22;11055;50.870;4.316;2023-08-01T06:30:00;16.70;99.90
21787;DHT22;11055;50.870;4.316;2023-08-01T06:32:26;16.70;99.90
21787;DHT22;11055;50.870;4.316;2023-08-01T06:34:51;16.70;99.90
21787;DHT22;11055;50.870;4.316;2023-08-01T06:37:17;16.70;99.90
21787;DHT22;11055;50.870;4.316;2023-08-01T06:39:43;16.70;99.90
21787;DHT22;11055;50.870;4.316;2023-08-01T06:42:09;16.70;99.90
21787;DHT22;11055;50.870;4.316;2023-08-01T06:44:35;16.70;99.90
21787;DHT22;11055;50.870;4.316;2023-08-01T06:47:00;16.70;99.90
21787;DHT22;11055;50.870;4.316;2023-08-01T06:49:26;16.70;99.90
21787;DHT22;11055;50.870;4.316;2023-08-01T06:51:52;16.70;99.90
21787;DHT22;11055;50.870;4.316;2023-08-01T06:54:17;16.70;99.90
21787;DHT22;11055;50.870;4.316;2023-08-01T06:56:43;16.70;99.90
21787;DHT22;11055;50.870;4.316;2023-08-01T06:59:13;16.70;99.90
21787;DHT22;11055;50.870;4.316;2023-08-01T07:01:40;16.80;99.90
21787;DHT22;11055;50.870;4.316;2023-08-01T07:04:11;16.90;99.90
21787;DHT22;11055;50.870;4.316;2023-08-01T07:06:37;16.90;99.90
21787;DHT22;11055;50.870;4.316;2023-08-01T07:09:03;16.90;99.90
21787;DHT22;11055;50.870;4.316;2023-08-01T07:11:29;16.90;99.90
21787;DHT22;11055;50.870;4.316;2023-08-01T07:13:55;16.90;99.90
21787;DHT22;11055;50.870;4.316;2023-08-01T07:16:20;16.90;99.90
21787;DHT22;11055;50.870;4.316;2023-08-01T07:18:46;16.90;99.90
21787;DHT22;11055;50.870;4.316;2023-08-01T07:21:13;17.00;99.90
21787;DHT22;11055;50.870;4.316;2023-08-01T07:23:39;17.10;99.90
21787;DHT22;11055;50.870;4.316;2023-08-01T07:26:05;17.10;99.90
21787;DHT22;11055;50.870;4.316;2023-08-01T07:28:31;17.10;99.90
21787;DHT22;11055;50.870;4.316;2023-08-01T07:31:04;17.20;99.90
21787;DHT22;11055;50.870;4.316;2023-08-01T07:33:31;17.20;99.90
21787;DHT22;11055;50.870;4.316;2023-08-01T07:35:57;17.30;99.90
21787;DHT22;11055;50.870;4.316;2023-08-01T07:38:22;17.30;99.90
21787;DHT22;11055;50.870;4.316;2023-08-01T07:40:49;17.30;99.90
21787;DHT22;11055;50.870;4.316;2023-08-01T07:43:14;17.30;99.90
21787;DHT22;11055;50.870;4.316;2023-08-01T07:45:40;17.40;99.90
21787;DHT22;11055;50.870;4.316;2023-08-01T07:48:06;17.30;99.90
21787;DHT22;11055;50.870;4.316;2023-08-01T07:50:31;17.20;99.90
21787;DHT22;11055;50.870;4.316;2023-08-01T07:52:57;17.30;99.90
21787;DHT22;11055;50.870;4.316;2023-08-01T07:55:23;17.30;99.90
21787;DHT22;11055;50.870;4.316;2023-08-01T07:57:48;17.40;99.90
21787;DHT22;11055;50.870;4.316;2023-08-01T08:00:14;17.50;99.90
21787;DHT22;11055;50.870;4.316;2023-08-01T08:02:44;17.50;99.90
21787;DHT22;11055;50.870;4.316;2023-08-01T08:05:10;17.60;99.90
21787;DHT22;11055;50.870;4.316;2023-08-01T08:07:39;17.70;99.90
21787;DHT22;11055;50.870;4.316;2023-08-01T08:10:05;17.80;99.90
21787;DHT22;11055;50.870;4.316;2023-08-01T08:12:32;17.80;99.90
21787;DHT22;11055;50.870;4.316;2023-08-01T08:14:57;18.00;99.90
21787;DHT22;11055;50.870;4.316;2023-08-01T08:17:23;18.00;99.90
21787;DHT22;11055;50.870;4.316;2023-08-01T08:19:49;18.00;99.90
21787;DHT22;11055;50.870;4.316;2023-08-01T08:22:14;18.00;99.90
21787;DHT22;11055;50.870;4.316;2023-08-01T08:24:40;18.10;99.90
21787;DHT22;11055;50.870;4.316;2023-08-01T08:27:06;18.10;99.90
21787;DHT22;11055;50.870;4.316;2023-08-01T08:29:32;18.10;99.90
21787;DHT22;11055;50.870;4.316;2023-08-01T08:31:58;18.10;99.90
21787;DHT22;11055;50.870;4.316;2023-08-01T08:34:24;18.20;99.90
21787;DHT22;11055;50.870;4.316;2023-08-01T08:36:49;18.30;99.90
21787;DHT22;11055;50.870;4.316;2023-08-01T08:39:16;18.40;99.90
21787;DHT22;11055;50.870;4.316;2023-08-01T08:41:47;18.50;99.90
21787;DHT22;11055;50.870;4.316;2023-08-01T08:44:15;18.60;99.90
21787;DHT22;11055;50.870;4.316;2023-08-01T08:46:44;18.70;99.90
21787;DHT22;11055;50.870;4.316;2023-08-01T08:49:10;18.80;99.90
21787;DHT22;11055;50.870;4.316;2023-08-01T08:51:37;18.80;99.90
21787;DHT22;11055;50.870;4.316;2023-08-01T08:54:05;18.80;99.90
21787;DHT22;11055;50.870;4.316;2023-08-01T08:56:31;18.80;99.90
21787;DHT22;11055;50.870;4.316;2023-08-01T08:58:59;18.90;99.90
21787;DHT22;11055;50.870;4.316;2023-08-01T09:01:26;19.00;99.90
21787;DHT22;11055;50.870;4.316;2023-08-01T09:03:51;19.10;99.90
21787;DHT22;11055;50.870;4.316;2023-08-01T09:06:24;19.10;99.90
21787;DHT22;11055;50.870;4.316;2023-08-01T09:08:51;19.20;99.90
21787;DHT22;11055;50.870;4.316;2023-08-01T09:11:20;19.20;99.90
21787;DHT22;11055;50.870;4.316;2023-08-01T09:13:47;19.10;99.90
21787;DHT22;11055;50.870;4.316;2023-08-01T09:16:14;19.20;99.90
21787;DHT22;11055;50.870;4.316;2023-08-01T09:18:50;19.20;99.90
21787;DHT22;11055;50.870;4.316;2023-08-01T09:21:20;19.30;99.90
21787;DHT22;11055;50.870;4.316;2023-08-01T09:23:46;19.40;99.90
21787;DHT22;11055;50.870;4.316;2023-08-01T09:26:16;19.30;99.90
21787;DHT22;11055;50.870;4.316;2023-08-01T09:28:42;19.40;99.90
21787;DHT22;11055;50.870;4.316;2023-08-01T09:31:07;19.40;99.90
21787;DHT22;11055;50.870;4.316;2023-08-01T09:33:40;19.40;99.90
21787;DHT22;11055;50.870;4.316;2023-08-01T09:36:07;19.30;99.90
21787;DHT22;11055;50.870;4.316;2023-08-01T09:38:37;19.20;99.90
21787;DHT22;11055;50.870;4.316;2023-08-01T09:41:04;19.20;99.90
21787;DHT22;11055;50.870;4.316;2023-08-01T09:43:36;19.20;99.90
21787;DHT22;11055;50.870;4.316;2023-08-01T09:46:03;19.30;99.90
21787;DHT22;11055;50.870;4.316;2023-08-01T09:48:30;19.40;99.90
21787;DHT22;11055;50.870;4.316;2023-08-01T09:53:32;19.30;99.90
21787;DHT22;11055;50.870;4.316;2023-08-01T09:56:00;19.40;99.90
21787;DHT22;11055;50.870;4.316;2023-08-01T09:58:32;19.50;99.90
21787;DHT22;11055;50.870;4.316;2023-08-01T10:01:00;19.60;99.90
21787;DHT22;11055;50.870;4.316;2023-08-01T10:03:28;19.80;99.90
21787;DHT22;11055;50.870;4.316;2023-08-01T10:05:55;20.10;99.90
21787;DHT22;11055;50.870;4.316;2023-08-01T10:08:22;20.20;99.90
21787;DHT22;11055;50.870;4.316;2023-08-01T10:10:48;20.20;99.90
21787;DHT22;11055;50.870;4.316;2023-08-01T10:13:14;20.00;99.90
21787;DHT22;11055;50.870;4.316;2023-08-01T10:15:41;20.00;99.90
21787;DHT22;11055;50.870;4.316;2023-08-01T10:18:07;20.20;99.90
21787;DHT22;11055;50.870;4.316;2023-08-01T10:20:36;20.30;99.90
21787;DHT22;11055;50.870;4.316;2023-08-01T10:23:03;20.10;99.90
21787;DHT22;11055;50.870;4.316;2023-08-01T10:25:30;20.10;99.90
21787;DHT22;11055;50.870;4.316;2023-08-01T10:28:00;20.10;99.90
21787;DHT22;11055;50.870;4.316;2023-08-01T10:30:27;20.10;99.90
21787;DHT22;11055;50.870;4.316;2023-08-01T10:32:55;20.20;99.90
21787;DHT22;11055;50.870;4.316;2023-08-01T10:35:38;20.40;99.90
21787;DHT22;11055;50.870;4.316;2023-08-01T10:38:10;20.40;99.90
21787;DHT22;11055;50.870;4.316;2023-08-01T10:43:03;20.40;99.90
21787;DHT22;11055;50.870;4.316;2023-08-01T10:45:29;20.50;99.90
21787;DHT22;11055;50.870;4.316;2023-08-01T10:48:07;20.40;99.90
21787;DHT22;11055;50.870;4.316;2023-08-01T10:50:33;20.20;99.90
21787;DHT22;11055;50.870;4.316;2023-08-01T10:53:07;20.10;99.90
21787;DHT22;11055;50.870;4.316;2023-08-01T10:55:43;20.20;99.90
21787;DHT22;11055;50.870;4.316;2023-08-01T10:58:10;20.20;99.90
21787;DHT22;11055;50.870;4.316;2023-08-01T11:00:36;20.20;99.90
21787;DHT22;11055;50.870;4.316;2023-08-01T11:03:02;20.20;99.90
21787;DHT22;11055;50.870;4.316;2023-08-01T11:05:28;20.20;99.90
21787;DHT22;11055;50.870;4.316;2023-08-01T11:08:02;20.30;99.90
21787;DHT22;11055;50.870;4.316;2023-08-01T11:10:30;20.70;99.90
21787;DHT22;11055;50.870;4.316;2023-08-01T11:12:56;21.10;99.90
21787;DHT22;11055;50.870;4.316;2023-08-01T11:15:22;21.20;99.90
21787;DHT22;11055;50.870;4.316;2023-08-01T11:17:52;21.10;99.90
21787;DHT22;11055;50.870;4.316;2023-08-01T11:20:20;21.10;99.90
21787;DHT22;11055;50.870;4.316;2023-08-01T11:22:52;20.90;99.90
21787;DHT22;11055;50.870;4.316;2023-08-01T11:25:19;20.90;99.90
21787;DHT22;11055;50.870;4.316;2023-08-01T11:27:44;20.80;99.90
21787;DHT22;11055;50.870;4.316;2023-08-01T11:30:10;20.70;99.90
21787;DHT22;11055;50.870;4.316;2023-08-01T11:32:37;20.80;99.90
21787;DHT22;11055;50.870;4.316;2023-08-01T11:35:03;20.90;99.90
21787;DHT22;11055;50.870;4.316;2023-08-01T11:37:30;21.00;99.90
21787;DHT22;11055;50.870;4.316;2023-08-01T11:39:57;21.10;99.90
21787;DHT22;11055;50.870;4.316;2023-08-01T11:42:23;21.10;99.90
21787;DHT22;11055;50.870;4.316;2023-08-01T11:44:49;21.40;99.90
21787;DHT22;11055;50.870;4.316;2023-08-01T11:47:15;21.70;99.90
21787;DHT22;11055;50.870;4.316;2023-08-01T11:49:46;21.60;99.90
21787;DHT22;11055;50.870;4.316;2023-08-01T11:52:25;21.20;99.90
21787;DHT22;11055;50.870;4.316;2023-08-01T11:54:52;21.10;99.90
21787;DHT22;11055;50.870;4.316;2023-08-01T11:57:18;21.00;99.90
21787;DHT22;11055;50.870;4.316;2023-08-01T11:59:51;21.00;99.90
21787;DHT22;11055;50.870;4.316;2023-08-01T12:02:35;20.90;99.90
21787;DHT22;11055;50.870;4.316;2023-08-01T12:05:01;20.70;99.90
21787;DHT22;11055;50.870;4.316;2023-08-01T12:07:26;20.60;99.90
21787;DHT22;11055;50.870;4.316;2023-08-01T12:09:58;20.80;99.90
21787;DHT22;11055;50.870;4.316;2023-08-01T12:12:25;20.90;99.90
21787;DHT22;11055;50.870;4.316;2023-08-01T12:14:51;21.20;99.90
21787;DHT22;11055;50.870;4.316;2023-08-01T12:17:18;21.60;99.90
21787;DHT22;11055;50.870;4.316;2023-08-01T12:19:44;21.70;99.90
21787;DHT22;11055;50.870;4.316;2023-08-01T12:22:09;21.70;99.90
21787;DHT22;11055;50.870;4.316;2023-08-01T12:24:35;21.60;99.90
21787;DHT22;11055;50.870;4.316;2023-08-01T12:27:05;21.40;99.90
21787;DHT22;11055;50.870;4.316;2023-08-01T12:29:31;21.00;99.90
21787;DHT22;11055;50.870;4.316;2023-08-01T12:31:57;20.90;99.90
21787;DHT22;11055;50.870;4.316;2023-08-01T12:34:22;20.70;99.90
21787;DHT22;11055;50.870;4.316;2023-08-01T12:36:48;20.60;99.90
21787;DHT22;11055;50.870;4.316;2023-08-01T12:39:13;20.50;99.90
21787;DHT22;11055;50.870;4.316;2023-08-01T12:41:39;20.50;99.90
21787;DHT22;11055;50.870;4.316;2023-08-01T12:44:05;20.40;99.90
21787;DHT22;11055;50.870;4.316;2023-08-01T12:46:31;20.40;99.90
21787;DHT22;11055;50.870;4.316;2023-08-01T12:48:56;20.20;99.90
21787;DHT22;11055;50.870;4.316;2023-08-01T12:51:22;20.20;99.90
21787;DHT22;11055;50.870;4.316;2023-08-01T12:53:48;20.10;99.90
21787;DHT22;11055;50.870;4.316;2023-08-01T12:56:13;20.00;99.90
21787;DHT22;11055;50.870;4.316;2023-08-01T12:58:39;19.80;99.90
21787;DHT22;11055;50.870;4.316;2023-08-01T13:01:06;19.70;99.90
21787;DHT22;11055;50.870;4.316;2023-08-01T13:03:32;19.70;99.90
21787;DHT22;11055;50.870;4.316;2023-08-01T13:05:58;19.70;99.90
21787;DHT22;11055;50.870;4.316;2023-08-01T13:08:23;19.80;99.90
21787;DHT22;11055;50.870;4.316;2023-08-01T13:10:49;19.90;99.90
21787;DHT22;11055;50.870;4.316;2023-08-01T13:13:16;20.20;99.90
21787;DHT22;11055;50.870;4.316;2023-08-01T13:15:42;20.50;99.90
21787;DHT22;11055;50.870;4.316;2023-08-01T13:18:08;20.90;99.90
21787;DHT22;11055;50.870;4.316;2023-08-01T13:20:34;21.10;99.90
21787;DHT22;11055;50.870;4.316;2023-08-01T13:23:00;21.20;99.90
21787;DHT22;11055;50.870;4.316;2023-08-01T13:25:25;21.30;99.90
21787;DHT22;11055;50.870;4.316;2023-08-01T13:27:51;21.30;99.90
21787;DHT22;11055;50.870;4.316;2023-08-01T13:30:16;21.50;99.90
21787;DHT22;11055;50.870;4.316;2023-08-01T13:32:44;21.50;99.90
21787;DHT22;11055;50.870;4.316;2023-08-01T13:35:13;21.30;99.90
21787;DHT22;11055;50.870;4.316;2023-08-01T13:37:39;21.30;99.90
21787;DHT22;11055;50.870;4.316;2023-08-01T13:40:05;21.40;99.90
21787;DHT22;11055;50.870;4.316;2023-08-01T13:42:31;21.40;99.90
21787;DHT22;11055;50.870;4.316;2023-08-01T13:44:57;21.50;99.90
21787;DHT22;11055;50.870;4.316;2023-08-01T13:47:23;21.40;99.90
21787;DHT22;11055;50.870;4.316;2023-08-01T13:49:48;21.50;99.90
21787;DHT22;11055;50.870;4.316;2023-08-01T13:52:14;21.50;99.90
21787;DHT22;11055;50.870;4.316;2023-08-01T13:54:40;21.60;99.90
21787;DHT22;11055;50.870;4.316;2023-08-01T13:57:06;21.70;99.90
21787;DHT22;11055;50.870;4.316;2023-08-01T13:59:31;21.50;99.90
21787;DHT22;11055;50.870;4.316;2023-08-01T14:01:57;21.40;99.90
21787;DHT22;11055;50.870;4.316;2023-08-01T14:04:23;21.30;99.90
21787;DHT22;11055;50.870;4.316;2023-08-01T14:06:48;21.10;99.90
21787;DHT22;11055;50.870;4.316;2023-08-01T14:09:14;20.90;99.90
21787;DHT22;11055;50.870;4.316;2023-08-01T14:11:40;20.70;99.90
21787;DHT22;11055;50.870;4.316;2023-08-01T14:14:06;20.60;99.90
21787;DHT22;11055;50.870;4.316;2023-08-01T14:16:31;20.60;99.90
21787;DHT22;11055;50.870;4.316;2023-08-01T14:18:58;20.50;99.90
21787;DHT22;11055;50.870;4.316;2023-08-01T14:21:24;20.30;99.90
21787;DHT22;11055;50.870;4.316;2023-08-01T14:23:50;20.20;99.90
21787;DHT22;11055;50.870;4.316;2023-08-01T14:26:15;20.00;99.90
21787;DHT22;11055;50.870;4.316;2023-08-01T14:28:41;19.90;99.90
21787;DHT22;11055;50.870;4.316;2023-08-01T14:31:07;19.80;99.90
21787;DHT22;11055;50.870;4.316;2023-08-01T14:33:35;19.80;99.90
21787;DHT22;11055;50.870;4.316;2023-08-01T14:36:01;19.80;99.90
21787;DHT22;11055;50.870;4.316;2023-08-01T14:38:27;19.80;99.90
21787;DHT22;11055;50.870;4.316;2023-08-01T14:40:53;20.00;99.90
21787;DHT22;11055;50.870;4.316;2023-08-01T14:43:19;20.00;99.90
21787;DHT22;11055;50.870;4.316;2023-08-01T14:45:45;20.20;99.90
21787;DHT22;11055;50.870;4.316;2023-08-01T14:48:10;20.20;99.90
21787;DHT22;11055;50.870;4.316;2023-08-01T14:50:38;20.10;99.90
21787;DHT22;11055;50.870;4.316;2023-08-01T14:53:04;20.00;99.90
21787;DHT22;11055;50.870;4.316;2023-08-01T14:55:32;20.10;99.90
21787;DHT22;11055;50.870;4.316;2023-08-01T14:57:57;20.20;99.90
21787;DHT22;11055;50.870;4.316;2023-08-01T15:00:23;20.30;99.90
21787;DHT22;11055;50.870;4.316;2023-08-01T15:02:49;20.30;99.90
21787;DHT22;11055;50.870;4.316;2023-08-01T15:05:14;20.40;99.90
21787;DHT22;11055;50.870;4.316;2023-08-01T15:07:40;20.50;99.90
21787;DHT22;11055;50.870;4.316;2023-08-01T15:10:06;20.50;99.90
21787;DHT22;11055;50.870;4.316;2023-08-01T15:12:32;20.40;99.90
21787;DHT22;11055;50.870;4.316;2023-08-01T15:14:57;20.30;99.90
21787;DHT22;11055;50.870;4.316;2023-08-01T15:17:24;20.10;99.90
21787;DHT22;11055;50.870;4.316;2023-08-01T15:19:50;20.00;99.90
21787;DHT22;11055;50.870;4.316;2023-08-01T15:22:17;19.90;99.90
21787;DHT22;11055;50.870;4.316;2023-08-01T15:24:44;19.70;99.90
21787;DHT22;11055;50.870;4.316;2023-08-01T15:27:10;19.60;99.90
21787;DHT22;11055;50.870;4.316;2023-08-01T15:29:36;19.50;99.90